Tiempo atmosférico en la estación meteorológica de Alajar, Huelva (572 m.)



Fecha
DESCASC
Temp. máxima en grados centígrados (hora)
DESCASC
Temp. mínima en grados centígrados (hora)
DESCASC
Temp. media en grados centígrados
DESCASC
Racha de viento máxima en m/sg (hora)
DESCASC
Velocidad máxima media en intervalos de 10 minutos(hora)
DESCASC
Precipitaciones diarias en mm
DESCASC
Precipitaciones de 00:00 a 06:00 en mm
DESCASC
Precipitaciones de 06:00 a 12:00 en mm
DESCASC
Precipitaciones de 12:00 a 18:00 en mm
DESCASC
Precipitaciones de 18:00 a 24:00 en mm
DESCASC
28-02-2021 15.7 (14:50) 7.6 (08:00) 11.6 6.67 (12:20) 3.89 (12:20) 0 0 0 0 0
27-02-2021 16.7 (15:30) 6.8 (07:30) 11.8 5.56 (11:30) 3.33 (11:30) 0 0 0 0 0
26-02-2021 15.5 (14:50) 9.3 (08:50) 12.4 9.44 (13:20) 4.72 (21:20) 0.8 0 0.8 0 0
25-02-2021 14.3 (16:40) 7.4 (00:00) 10.9 6.11 (03:10) 3.33 (14:00) 0.2 0 0 0 0.2
24-02-2021 16.8 (15:10) 8 (00:00) 12.4 11.67 (10:20) 6.11 (13:40) 0 0 0 0 0
23-02-2021 15.7 (14:30) 5.7 (00:00) 10.7 8.89 (22:30) 5 (14:10) 0 0 0 0 0
22-02-2021 14.1 (15:00) 4.2 (00:00) 9.2 7.22 (15:00) 4.72 (09:10) 0 0 0 0 0
21-02-2021 12.4 (01:20) 5.3 (00:00) 8.8 16.67 (05:00) 9.17 (05:00) 19.4 3 13.2 0.2 3
20-02-2021 16.9 (15:10) 9.7 (00:00) 13.3 16.39 (15:50) 8.61 (16:00) 0 0 0 0 0
19-02-2021 14.8 (14:50) 7.5 (00:00) 11.2 8.61 (13:50) 4.72 (14:20) 0 0 0 0 0
18-02-2021 19.2 (15:20) 8.3 (00:00) 13.8 6.11 (16:50) 3.61 (16:20) 0 0 0 0 0
17-02-2021 21.1 (15:10) 7.7 (00:00) 14.4 5.28 (14:30) 3.06 (15:40) 0 0 0 0 0
16-02-2021 18.5 (16:10) 7.4 (00:00) 13 5.83 (12:00) 3.33 (15:10) 0 0 0 0 0
15-02-2021 18.1 (14:10) 8.4 (00:00) 13.3 9.17 (16:30) 5.56 (16:30) 0 0 0 0 0
14-02-2021 20.2 (15:20) 9 (00:00) 14.6 8.06 (00:40) 3.89 (00:10) 0 0 0 0 0
13-02-2021 18.6 (16:10) 6.7 (00:00) 12.7 8.33 (21:10) 6.11 (21:10) 0 0 0 0 0
12-02-2021 15.2 (16:40) 8.4 (00:00) 11.8 12.22 (06:20) 6.67 (09:50) 3.4 3.2 0.2 0 0
11-02-2021 14.2 (15:20) 10.7 (00:00) 12.4 6.67 (14:50) 3.61 (13:00) 2.4 0.2 0.8 0 1.4
10-02-2021 14.3 (14:20) 8.9 (00:00) 11.6 12.22 (01:20) 5 (01:20) 20.4 6 10.4 2.6 1.4
09-02-2021 10.9 (16:50) 8.2 (00:00) 9.5 16.11 (12:50) 7.5 (10:10) 11.8 0.8 1.2 9 0.8
08-02-2021 10.6 (04:10) 7.9 (00:00) 9.3 17.5 (04:10) 6.94 (04:40) 26.2 23.4 0 2.8 0
07-02-2021 8.5 (15:10) 4.8 (00:00) 6.7 10.83 (11:40) 6.11 (11:40) 2.6 0.2 0.2 0 2.2
06-02-2021 9.7 (15:10) 7 (00:00) 8.3 8.89 (14:00) 5 (14:00) 10.4 1.8 2.8 3.4 2.4
05-02-2021 10.6 (06:40) 8.1 (00:00) 9.4 11.39 (10:30) 6.11 (07:10) 33.2 2.6 10.4 8 12.2
04-02-2021 10.9 (00:20) 9.8 (00:00) 10.3 10.83 (11:00) 5 (14:20) 16.8 7.8 4.2 4.6 0.2
03-02-2021 12 (16:20) 9.6 (00:00) 10.8 7.22 (18:00) 4.44 (17:40) 5.8 0 0 0 5.8
02-02-2021 14.1 (15:50) 10.4 (00:00) 12.3 6.39 (16:30) 3.89 (21:00) 0.6 0 0.6 0 0
01-02-2021 15.6 (16:10) 10.1 (00:00) 12.9 10.83 (01:20) 5.28 (02:40) 1.4 1.2 0.2 0 0
31-01-2021 12.6 (23:59) 8.3 (00:00) 10.5 11.39 (04:50) 6.11 (00:30) 4.2 0 0 1.8 2.4

Gráficas

Temp. máximas Temp. mínimas Temp. medias Precipitaciones Rachas de viento máximas Velocidades máximas media en intervalos de 10 minutos

Datos horarios

Fecha y hora oficial Temperatura (ºC) Velocidad del viento (km/h) Dirección del viento Racha (km/h) Dirección de racha Precipitación (mm) Presión (hPa) Tendencia (hPa) Humedad (%)
2021-03-01 23:00:00 9.9 3 Norte 5 Nordeste 0 953.1 1 88
2021-03-01 22:00:00 10.6 6 Nordeste 11 Nordeste 0 952.8 1.5 84
2021-03-01 21:00:00 12.3 8 Norte 17 Norte 0 952.4 1.8 75
2021-03-01 20:00:00 12.5 4 Noroeste 18 Norte 0 952.1 1.9 76
2021-03-01 19:00:00 13.2 13 Norte 19 Nordeste 0 951.3 1.2 73
2021-03-01 18:00:00 15.2 3 Sudoeste 17 Sudeste 0 950.6 0.2 59
2021-03-01 17:00:00 16.9 8 Sudeste 19 Sudeste 0 950.2 -0.6 52
2021-03-01 16:00:00 15.7 3 Norte 18 Sudeste 0 950.1 -1.1 54
2021-03-01 15:00:00 14.9 6 Sur 23 Sur 0 950.4 -- 60
2021-03-01 14:00:00 15.1 15 Sur 25 Sudeste 0 950.8 -- 57
2021-03-01 13:00:00 14.3 8 Sudeste 20 Sur 0 951.2 -- 60
2021-03-01 12:00:00 14.3 10 Sudeste 24 Sur 0 951.4 -- 64
2021-03-01 11:00:00 12.5 13 Sur 20 Sur 0 951.1 -- 70
2021-03-01 10:00:00 10.9 4 Sudeste 15 Este 0 950.8 -- 79
2021-03-01 09:00:00 9.3 10 Este 19 Este 0 950.6 -- 86
2021-03-01 08:00:00 7.7 5 Este 12 Este 0 950.3 -- 94
2021-03-01 07:00:00 7.6 6 Este 11 Este 0 950.2 -- 98
2021-03-01 06:00:00 8.9 5 Este 9 Este 0 950.4 -- 91
2021-03-01 05:00:00 8.5 4 Nordeste 8 Nordeste 0 950.2 -- 98
2021-03-01 04:00:00 8.2 5 Nordeste 8 Norte 0 950.1 -- 96
2021-03-01 03:00:00 8.6 6 Nordeste 10 Nordeste 0 950.5 -- 91
2021-03-01 02:00:00 9.1 5 Este 9 Este 0 950.3 -- 85
2021-03-01 01:00:00 9.1 6 Este 13 Este 0 950.3 -- 83
2021-03-01 00:00:00 9.3 6 Este 13 Este 0 950.2 -- 81
2021-02-28 23:00:00 9.2 6 Este 16 Este 0 950.1 -- 80
2021-02-28 22:00:00 9.8 5 Este 15 Este 0 949.8 -- 77
2021-02-28 21:00:00 10.5 9 Este 19 Este 0 949.7 -- 76
2021-02-28 20:00:00 9.9 8 Nordeste 10 Nordeste 0 949.6 -- 84
2021-02-28 19:00:00 11.8 6 Este 13 Sudeste 0 949.4 -- 76
2021-02-28 18:00:00 13.5 8 Este 19 Sudeste 0 949.3 -- 67
2021-02-28 17:00:00 13.9 5 Sudeste 14 Sudeste 0 949.5 -- 67
2021-02-28 16:00:00 14.7 5 Sur 13 Sur 0 949.4 -- 65
2021-02-28 15:00:00 14.8 6 Sudeste 22 Sur 0 949.9 -- 59
2021-02-28 14:00:00 14.3 6 Sudeste 16 Sur 0 950.5 -- 61
2021-02-28 13:00:00 14.5 10 Sur 24 Sur 0 951.4 -- 60
2021-02-28 12:00:00 13.8 9 Sur 22 Sudeste 0 951.6 -- 67
2021-02-28 11:00:00 12.5 8 Sudeste 19 Sudeste 0 952 -- 73
2021-02-28 10:00:00 10.5 9 Sudeste 18 Este 0 951.8 -- 80
2021-02-28 09:00:00 8.9 8 Este 21 Este 0 951.5 -- 88
2021-02-28 08:00:00 7.7 10 Este 17 Este 0 951.3 -- 92
2021-02-28 07:00:00 8.2 6 Este 14 Este 0 951.4 -- 84
2021-02-28 06:00:00 8.5 7 Este 17 Este 0 951.2 -- 79
2021-02-28 05:00:00 9 8 Este 16 Este 0 951.1 -- 79
2021-02-28 04:00:00 8.8 6 Nordeste 10 Este 0 951.7 -- 89
2021-02-28 03:00:00 8.6 4 Nordeste 7 Este 0 952.1 -- 97
2021-02-28 02:00:00 8.1 5 Norte 11 Este 0 952.5 -- 100
2021-02-28 01:00:00 8.8 6 Nordeste 10 Nordeste 0 952.6 -- 95
2021-02-28 00:00:00 9 5 Nordeste 10 Nordeste 0 952.6 -- 93
2021-02-27 23:00:00 9.1 2 Nordeste 10 Este 0 952.9 -- 92
2021-02-27 22:00:00 9.6 5 Nordeste 9 Nordeste 0 953 -- 90
2021-02-27 21:00:00 10.4 7 Norte 10 Norte 0 952.8 -- 86
2021-02-27 20:00:00 11.5 6 Nordeste 12 Sudoeste 0 952.9 -- 82
2021-02-27 19:00:00 13 4 Oeste 12 Sudoeste 0 952.9 -- 74
2021-02-27 18:00:00 14.1 7 Sudoeste 12 Sur 0 952.9 -- 70
2021-02-27 17:00:00 15.4 6 Sudoeste 11 Sur 0 953.1 -- 60
2021-02-27 16:00:00 15.7 7 Sudoeste 16 Sur 0 953.5 -- 61
2021-02-27 15:00:00 16.2 6 Sudoeste 15 Sur 0 953.9 -- 60
2021-02-27 14:00:00 14.9 8 Sudeste 19 Sudeste 0 954.9 -- 62
2021-02-27 13:00:00 13.5 5 Sudeste 17 Sudeste 0 955.6 -- 65
2021-02-27 12:00:00 14.7 9 Sur 20 Sudeste 0 956 -- 60
2021-02-27 11:00:00 13.8 7 Sudeste 17 Sudeste 0 956.2 -- 64
2021-02-27 10:00:00 11 4 Sudeste 8 Sudeste 0 956 -- 91
2021-02-27 09:00:00 8 2 Nordeste 10 Nordeste 0 956.1 -- 97
2021-02-27 08:00:00 6.9 2 Noroeste 9 Nordeste 0 955.8 -- 100
2021-02-27 07:00:00 7.1 6 Nordeste 8 Nordeste 0 955.9 -- 100
2021-02-27 06:00:00 7.5 3 Nordeste 10 Nordeste 0 955.9 -- 96
2021-02-27 05:00:00 7.9 6 Nordeste 9 Nordeste 0 956 -- 96
2021-02-27 04:00:00 8 2 Este 9 Nordeste 0 956.4 -- 100
2021-02-27 03:00:00 8.9 5 Nordeste 8 Nordeste 0 956.8 -- 99
2021-02-27 02:00:00 8.9 3 Sudoeste 7 Nordeste 0 956.8 -- 100
2021-02-27 01:00:00 9.5 2 Norte 17 Norte 0 957.3 -- 100
2021-02-27 00:00:00 10.9 10 Norte 22 Norte 0 957.5 -- 94
2021-02-26 23:00:00 10.8 13 Norte 26 Nordeste 0 957.8 -- 100
2021-02-26 22:00:00 11.1 14 Norte 26 Nordeste 0 957.6 -- 100
2021-02-26 21:00:00 11.1 14 Norte 21 Norte 0 957.5 -- 94
2021-02-26 20:00:00 11.4 6 Nordeste 9 Nordeste 0 957.5 -- 83
2021-02-26 19:00:00 12.9 3 Norte 10 Sur 0 957.2 -- 76
2021-02-26 18:00:00 14.3 8 Sur 16 Sudeste 0 956.7 -- 66
2021-02-26 17:00:00 14.8 9 Sur 17 Sur 0 956.6 -- 66
2021-02-26 16:00:00 15.3 8 Sur 22 Sudeste 0 956.9 -- 63
2021-02-26 15:00:00 15.2 9 Sudeste 30 Sudeste 0 957.3 -- 63
2021-02-26 14:00:00 14.7 14 Sudeste 34 Sudeste 0 957.8 -- 64
2021-02-26 13:00:00 14.3 14 Sudeste 30 Sudeste 0 958.1 -- 66
2021-02-26 12:00:00 12.2 6 Sudeste 16 Sudeste 0 958.5 -- 80
2021-02-26 11:00:00 11.4 5 Este 14 Este 0 958.3 -- 88
2021-02-26 10:00:00 10.4 6 Este 12 Este 0 958.1 -- 90
2021-02-26 09:00:00 9.5 7 Este 13 Este 0 957.3 -- 100
2021-02-26 08:00:00 9.6 6 Este 15 Este 0.6 957 -- 94
2021-02-26 07:00:00 9.8 9 Este 16 Este 0.2 956.7 -- 91
2021-02-26 06:00:00 10.2 6 Sudeste 21 Este 0 956.5 -- 85
2021-02-26 05:00:00 10.4 6 Este 17 Este 0 956.4 -- 81
2021-02-26 04:00:00 10.4 8 Este 21 Este 0 956.2 -- 80
2021-02-26 03:00:00 10.4 10 Este 21 Este 0 956.6 -- 79
2021-02-26 02:00:00 10.4 12 Este 24 Este 0 957 -- 79
2021-02-26 01:00:00 10.5 10 Este 24 Este 0 957.2 -- 80
2021-02-26 00:00:00 10.9 9 Este 21 Sudeste 0 957.3 -- 83
2021-02-25 23:00:00 11.2 8 Este 14 Este 0 957.5 -- 88
2021-02-25 22:00:00 11.3 4 Sudeste 14 Este 0 957.5 -- 91
2021-02-25 21:00:00 11.3 5 Este 10 Este 0 957.3 -- 95
2021-02-25 20:00:00 11.2 5 Nordeste 12 Sudoeste 0.2 957.1 -- 100
2021-02-25 19:00:00 12.3 5 Sudeste 15 Sudeste 0 956.8 -- 81
2021-02-25 18:00:00 13.1 9 Sudeste 19 Sur 0 956.6 -- 75
2021-02-25 17:00:00 13.8 12 Sur 20 Sudeste 0 956.7 -- 70
2021-02-25 16:00:00 13.4 10 Sudeste 18 Sur 0 957 -- 73
2021-02-25 15:00:00 13.1 9 Sur 18 Sur 0 957.4 -- 74
2021-02-25 14:00:00 12.3 12 Sur 18 Sudeste 0 958.1 -- 75
2021-02-25 13:00:00 12.5 9 Sur 20 Sudeste 0 958.6 -- 74
2021-02-25 12:00:00 11.7 7 Sudeste 17 Sudeste 0 959.1 -- 76
2021-02-25 11:00:00 10.9 5 Sudeste 14 Sudeste 0 959.1 -- 79
2021-02-25 10:00:00 10.3 3 Sudeste 12 Este 0 958.9 -- 83
2021-02-25 09:00:00 9.6 3 Sudeste 10 Este 0 958.3 -- 85
2021-02-25 08:00:00 9.1 5 Este 9 Sudeste 0 957.9 -- 86
2021-02-25 07:00:00 7.8 6 Este 11 Este 0 957.8 -- 92
2021-02-25 06:00:00 7.8 6 Este 10 Este 0 957.8 -- 88
2021-02-25 05:00:00 8.7 5 Sudeste 15 Este 0 957.5 -- 81
2021-02-25 04:00:00 8.9 8 Este 22 Este 0 957.6 -- 82
2021-02-25 03:00:00 9.1 9 Este 21 Este 0 957.4 -- 81
2021-02-25 02:00:00 8.9 7 Este 17 Este 0 957.9 -- 85
2021-02-25 01:00:00 8.8 6 Este 13 Este 0 958.5 -- 86
2021-02-25 00:00:00 9.6 6 Este 15 Sudeste 0 959 -- 83
2021-02-24 23:00:00 9.9 8 Este 14 Este 0 958.8 -- 82
2021-02-24 22:00:00 10.5 7 Este 19 Este 0 958.5 -- 80
2021-02-24 21:00:00 11.6 8 Este 26 Sudeste 0 958.5 -- 76
2021-02-24 20:00:00 12.4 7 Este 20 Sudeste 0 958.7 -- 73
2021-02-24 19:00:00 13.6 11 Sudeste 28 Sudeste 0 958.4 -- 70
2021-02-24 18:00:00 14.8 13 Sudeste 31 Sur 0 958.4 -- 65
2021-02-24 17:00:00 15.4 16 Sur 34 Sudeste 0 958.7 -- 61
2021-02-24 16:00:00 15.7 15 Sur 28 Sur 0 959.1 -- 58
2021-02-24 15:00:00 16.2 15 Sudeste 34 Sudeste 0 959.6 -- 62
2021-02-24 14:00:00 15 18 Sudeste 37 Sudeste 0 959.8 -- 62
2021-02-24 13:00:00 14.7 20 Sudeste 36 Sur 0 960.6 -- 63
2021-02-24 12:00:00 14 18 Sudeste 33 Sur 0 961.3 -- 66
2021-02-24 11:00:00 12.9 14 Sudeste 42 Sudeste 0 961.4 -- 71
2021-02-24 10:00:00 10.7 18 Sudeste 40 Sudeste 0 961 -0.1 76
2021-02-24 09:00:00 9.4 13 Sudeste 36 Sudeste 0 961.5 -- 82
2021-02-24 08:00:00 8.5 13 Este 39 Sudeste 0 961.4 -0.2 89
2021-02-24 07:00:00 8.4 10 Sudeste 39 Sudeste 0 961.1 -- 88
2021-02-24 06:00:00 8.5 12 Sudeste 33 Sudeste 0 961.2 -1.5 87
2021-02-24 05:00:00 8.2 12 Este 29 Este 0 961.6 -- 87
2021-02-24 04:00:00 8.3 11 Este 26 Este 0 962.1 -- 82
2021-02-24 03:00:00 8.4 10 Este 24 Este 0 962.7 -- 74
2021-02-24 02:00:00 8.6 9 Este 22 Este 0 963.1 0 72
2021-02-24 01:00:00 8.3 8 Este 15 Este 0 963.5 -- 74
2021-02-24 00:00:00 9.2 8 Sudeste 28 Sudeste 0 963.3 -- 71
2021-02-23 23:00:00 10 10 Este 32 Sudeste 0 963.1 -- 64
2021-02-23 22:00:00 10.3 10 Este 19 Este 0 963 -- 63
2021-02-23 21:00:00 10.2 6 Este 21 Sudeste 0 963 1 62
2021-02-23 20:00:00 11.1 7 Sudeste 19 Este 0 962.8 -- 54
2021-02-23 19:00:00 12.5 10 Sur 26 Sur 0 962.4 0.5 45
2021-02-23 18:00:00 14.2 14 Sur 25 Sur 0 962 -- 40
2021-02-23 17:00:00 15.2 13 Sudeste 28 Sur 0 962 -- 40
2021-02-23 16:00:00 15.4 14 Sur 28 Sur 0 961.9 -- 42
2021-02-23 15:00:00 15.3 14 Sur 31 Sur 0 962.2 -- 41
2021-02-23 14:00:00 15.1 13 Sur 27 Sudeste 0 962.5 -- 42
2021-02-23 13:00:00 14.2 13 Sudeste 27 Sudeste 0 963.1 -- 41
2021-02-23 12:00:00 13.1 16 Sudeste 30 Sur 0 963 -- 58
2021-02-23 11:00:00 12.1 12 Sur 23 Sur 0 963.1 -- 67
2021-02-23 10:00:00 10.4 9 Sudeste 20 Sudeste 0 962.5 -- 77
2021-02-23 09:00:00 7.9 6 Este 10 Este 0 961.7 -- 89
2021-02-23 08:00:00 5.9 8 Nordeste 13 Nordeste 0 960.7 -- 97
2021-02-23 07:00:00 5.8 9 Este 13 Este 0 960 -- 99
2021-02-23 06:00:00 6.3 7 Nordeste 10 Este 0 959.8 -- 100
2021-02-23 05:00:00 6.4 7 Nordeste 12 Este 0 959.4 -- 100
2021-02-23 04:00:00 6.5 8 Nordeste 12 Nordeste 0 959.4 -- 100
2021-02-23 03:00:00 6.8 4 Nordeste 8 Nordeste 0 959.6 -- 100
2021-02-23 02:00:00 6.7 0 Calma 9 Este 0 959.6 -- 100
2021-02-23 01:00:00 6.5 5 Nordeste 8 Nordeste 0 959.1 -- 100
2021-02-23 00:00:00 6.6 4 Nordeste 6 Este 0 959 -- 100
2021-02-22 23:00:00 8 2 Norte 9 Noroeste 0 958.2 -- 97
2021-02-22 22:00:00 9.2 5 Sudoeste 11 Sudoeste 0 957.7 -- 91
2021-02-22 21:00:00 9.3 4 Sudoeste 9 Sudoeste 0 957.1 -- 89
2021-02-22 20:00:00 9.5 0 Calma 9 Oeste 0 956.6 -- 85
2021-02-22 19:00:00 10.5 5 Oeste 19 Sudoeste 0 956 -- 74
2021-02-22 18:00:00 12.8 12 Sudoeste 21 Sudoeste 0 955.1 -- 58
2021-02-22 17:00:00 13.2 11 Oeste 23 Oeste 0 954.7 -- 56
2021-02-22 16:00:00 12.7 8 Oeste 23 Oeste 0 954.3 -- 60
2021-02-22 15:00:00 13.6 11 Oeste 26 Noroeste 0 954.3 -- 56
2021-02-22 14:00:00 11.8 7 Oeste 22 Oeste 0 954.4 -- 66
2021-02-22 13:00:00 10.9 7 Noroeste 22 Oeste 0 954.6 -- 68
2021-02-22 12:00:00 11.6 8 Sudoeste 17 Noroeste 0 954.2 -- 66
2021-02-22 11:00:00 10.2 8 Sudoeste 24 Noroeste 0 953.6 -- 77
2021-02-22 10:00:00 8.2 11 Noroeste 25 Norte 0 953.3 -- 77
2021-02-22 09:00:00 6.4 15 Norte 21 Noroeste 0 952.4 -- 80
2021-02-22 08:00:00 5.8 15 Noroeste 23 Noroeste 0 951.7 -- 84
2021-02-22 07:00:00 5.4 13 Noroeste 19 Noroeste 0 951.1 1.1 89
2021-02-22 06:00:00 4.4 6 Noroeste 15 Noroeste 0 950.6 -- 98
2021-02-22 05:00:00 5.2 6 Noroeste 18 Norte 0 950.2 -- 91
2021-02-22 04:00:00 4.8 4 Noroeste 21 Norte 0 950 -- 96
2021-02-22 03:00:00 5.4 5 Norte 23 Norte 0 949.8 -- 93
2021-02-22 02:00:00 5.6 11 Noroeste 21 Noroeste 0 949.4 -- 95
2021-02-22 01:00:00 5.8 10 Noroeste 25 Norte 0 948.8 -- 96
2021-02-22 00:00:00 6.3 13 Noroeste 27 Noroeste 0 948.2 -- 95
2021-02-21 23:00:00 6.3 12 Noroeste 24 Noroeste 0 947.5 -- 97
2021-02-21 22:00:00 6.5 13 Noroeste 26 Norte 0 946.7 3.1 95
2021-02-21 21:00:00 6.6 10 Noroeste 24 Noroeste 0.2 946 -- 100
2021-02-21 20:00:00 6.7 17 Noroeste 33 Norte 2.8 945.3 -- 94
2021-02-21 19:00:00 9.1 12 Noroeste 28 Noroeste 0 943.6 -- 72
2021-02-21 18:00:00 9.6 15 Norte 32 Norte 0 942.3 -- 64
2021-02-21 17:00:00 9.8 16 Noroeste 37 Norte 0 941.6 -- 67
2021-02-21 16:00:00 9 14 Noroeste 37 Norte 0 940.7 -- 74
2021-02-21 15:00:00 8.5 9 Noroeste 39 Norte 0 940.1 -- 81
2021-02-21 14:00:00 7.9 12 Noroeste 35 Noroeste 0 939.6 -- 82
2021-02-21 13:00:00 7.5 17 Nordeste 46 Norte 0.2 938.6 -- 84
2021-02-21 12:00:00 5.9 25 Nordeste 53 Norte 0.6 939.6 -- 96
2021-02-21 11:00:00 5.3 28 Norte 45 Norte 2.6 939.4 -- 100
2021-02-21 10:00:00 6.1 26 Norte 46 Norte 2.8 939.1 -- 98
2021-02-21 09:00:00 6.4 32 Norte 50 Norte 3.6 938.4 -- 100
2021-02-21 08:00:00 8.7 4 Sudoeste 20 Sudoeste 1.4 937.8 -- 100
2021-02-21 07:00:00 8.7 11 Sudoeste 38 Sur 2.2 937.8 -- 100
2021-02-21 06:00:00 9.3 10 Sudoeste 58 Sur 2.2 938.1 -- 100
2021-02-21 05:00:00 10 33 Sudoeste 60 Sudoeste 0.8 938.7 -- 98
2021-02-21 04:00:00 11.3 17 Sur 46 Sudoeste 0 939.1 -- 80
2021-02-21 03:00:00 11.6 15 Sur 54 Sudoeste 0 939.6 -- 72
2021-02-21 02:00:00 12.2 16 Sur 50 Sudoeste 0 939.3 -- 58
2021-02-21 01:00:00 12.3 21 Sur 46 Sur 0 939.8 -- 58
2021-02-21 00:00:00 12.3 21 Sur 53 Sur 0 939.6 -- 60
2021-02-20 23:00:00 12.1 24 Sur 57 Sur 0 940.3 -- 65
2021-02-20 22:00:00 12.2 17 Sur 48 Sur 0 940.6 -- 67
2021-02-20 21:00:00 12.3 21 Sur 47 Sudeste 0 940.9 -- 75
2021-02-20 20:00:00 13.1 22 Sur 46 Sur 0 941.4 -- 68
2021-02-20 19:00:00 13.6 8 Sur 49 Sur 0 942 -- 45
2021-02-20 18:00:00 14.8 20 Sur 45 Sudoeste 0 942.9 -- 38
2021-02-20 17:00:00 15.4 23 Sur 51 Sur 0 943.2 -- 35
2021-02-20 16:00:00 16.2 31 Sudoeste 59 Sudoeste 0 943.6 -- 32
2021-02-20 15:00:00 16.6 17 Sur 43 Sur 0 944.2 -- 44
2021-02-20 14:00:00 14.8 19 Sur 46 Sur 0 945.5 -- 69
2021-02-20 13:00:00 12.7 21 Sur 41 Sur 0 946.3 -- 65
2021-02-20 12:00:00 12.3 16 Sur 33 Sur 0 946.9 -- 76
2021-02-20 11:00:00 10.2 12 Sur 34 Sur 0 947.7 -- 94
2021-02-20 10:00:00 9.8 12 Sur 41 Sur 0 948 -- 100
2021-02-20 09:00:00 9.7 15 Sur 33 Sur 0 948.1 0.7 100
2021-02-20 08:00:00 9.7 9 Sur 39 Sur 0 947.4 -- 100
2021-02-20 07:00:00 9.8 18 Sur 40 Sudeste 0 947.1 -- 100
2021-02-20 06:00:00 10 12 Sur 41 Sur 0 947.4 -1.1 98
2021-02-20 05:00:00 10 17 Sur 36 Sur 0 947.3 -- 98
2021-02-20 04:00:00 10.1 12 Sudoeste 29 Sudoeste 0 948.2 -1.2 100
2021-02-20 03:00:00 9.8 11 Sur 27 Sudoeste 0 948.5 -- 99
2021-02-20 02:00:00 10 8 Sur 27 Sudeste 0 949 -- 100
2021-02-20 01:00:00 10.2 12 Sur 27 Sur 0 949.4 -- 100
2021-02-20 00:00:00 10.1 9 Sur 21 Sur 0 949.8 -- 100
2021-02-19 23:00:00 9.9 6 Sudeste 26 Sur 0 950.1 -0.4 100
2021-02-19 22:00:00 9.9 10 Sur 22 Sur 0 950.3 -- 100
2021-02-19 21:00:00 10.3 7 Sur 16 Sur 0 950.3 -- 98
2021-02-19 20:00:00 11 6 Sur 18 Sur 0 950.5 -- 92
2021-02-19 19:00:00 11.3 8 Sur 18 Sudoeste 0 950.2 -- 85
2021-02-19 18:00:00 12.1 10 Sudoeste 18 Sudoeste 0 950.8 -- 80
2021-02-19 17:00:00 12.8 11 Sur 23 Sudoeste 0 950.6 -1.1 72
2021-02-19 16:00:00 13.6 10 Sudoeste 25 Sudoeste 0 951.4 -- 71
2021-02-19 15:00:00 14.2 12 Sudoeste 25 Sudoeste 0 951.6 -- 67
2021-02-19 14:00:00 13.8 14 Sudoeste 31 Sudoeste 0 951.7 -- 69
2021-02-19 13:00:00 13.4 9 Sur 25 Sur 0 952.3 -- 74
2021-02-19 12:00:00 12.2 9 Sudoeste 21 Sur 0 952.5 -- 79
2021-02-19 11:00:00 10 9 Sur 20 Sur 0 952.8 -- 87
2021-02-19 10:00:00 9.3 9 Sur 19 Sudeste 0 952.7 -- 94
2021-02-19 09:00:00 8.8 5 Sudeste 14 Sudeste 0 952.7 -- 100
2021-02-19 08:00:00 8.7 5 Sudeste 13 Sudeste 0 952.5 -- 100
2021-02-19 07:00:00 8.9 5 Sur 14 Sudeste 0 952.3 -- 100
2021-02-19 06:00:00 9 5 Sur 14 Sur 0 952.1 -- 100
2021-02-19 05:00:00 9.6 7 Sur 14 Sur 0 952 -- 100
2021-02-19 04:00:00 10.1 5 Sudeste 9 Sudeste 0 952.1 -- 100
2021-02-19 03:00:00 9.7 3 Sudeste 11 Este 0 952.4 -- 100
2021-02-19 02:00:00 8.2 7 Nordeste 12 Este 0 952.8 -- 100
2021-02-19 01:00:00 8.1 7 Este 12 Nordeste 0 952.8 -- 94
2021-02-19 00:00:00 9 6 Nordeste 9 Nordeste 0 953.3 -- 100
2021-02-18 23:00:00 10.2 2 Sudoeste 5 Sudoeste 0 953.5 -- 100
2021-02-18 22:00:00 11.2 3 Sudoeste 5 Sudoeste 0 953.2 -- 99
2021-02-18 21:00:00 12.1 3 Sudoeste 10 Sudoeste 0 953.3 -- 97
2021-02-18 20:00:00 12.9 8 Sudoeste 18 Sudoeste 0 952.9 -- 95
2021-02-18 19:00:00 14.1 9 Sudoeste 17 Sudoeste 0 952.3 -- 81
2021-02-18 18:00:00 16.3 11 Sudoeste 19 Sur 0 952 -- 53
2021-02-18 17:00:00 17.9 11 Sudoeste 22 Sur 0 951.9 -- 47
2021-02-18 16:00:00 18.6 9 Sudoeste 19 Sudoeste 0 951.9 -- 44
2021-02-18 15:00:00 18.9 10 Sudoeste 19 Sudoeste 0 951.9 -- 45
2021-02-18 14:00:00 18.7 10 Sudoeste 20 Sudoeste 0 952.4 -- 43
2021-02-18 13:00:00 18.8 9 Sudoeste 19 Sur 0 953 -- 42
2021-02-18 12:00:00 17.2 8 Sudoeste 13 Sur 0 953.2 -- 47
2021-02-18 11:00:00 14.2 6 Sudoeste 10 Oeste 0 953.1 -- 51
2021-02-18 10:00:00 11.2 4 Oeste 6 Oeste 0 952.9 -- 62
2021-02-18 09:00:00 9 4 Noroeste 5 Noroeste 0 952.5 -- 54
2021-02-18 08:00:00 8.5 3 Este 10 Nordeste 0 951.9 -- 52
2021-02-18 07:00:00 9 6 Nordeste 12 Nordeste 0 951.3 -- 51
2021-02-18 06:00:00 9.8 3 Nordeste 6 Nordeste 0 951.4 -- 44
2021-02-18 05:00:00 10.9 3 Sudoeste 9 Noroeste 0 951.3 -- 40
2021-02-18 04:00:00 11.7 5 Noroeste 17 Norte 0 951.5 -- 37
2021-02-18 03:00:00 13.2 13 Norte 17 Norte 0 951.9 -- 33
2021-02-18 02:00:00 12.3 10 Norte 18 Norte 0 952 -- 38
2021-02-18 01:00:00 11 5 Norte 15 Norte 0 952.4 -- 60
2021-02-18 00:00:00 9.9 5 Oeste 10 Noroeste 0 952.9 -- 68
2021-02-17 23:00:00 10.6 4 Noroeste 8 Este 0 953.2 -- 68
2021-02-17 22:00:00 10.7 5 Este 9 Oeste 0 953.3 -- 72
2021-02-17 21:00:00 11.2 2 Sudoeste 10 Nordeste 0 953.4 -- 75
2021-02-17 20:00:00 12.6 5 Nordeste 9 Nordeste 0 953.2 -- 67
2021-02-17 19:00:00 16.1 4 Noroeste 15 Sudoeste 0 953 -- 54
2021-02-17 18:00:00 19.3 8 Sudoeste 15 Sur 0 953.1 -- 43
2021-02-17 17:00:00 20.3 8 Sudoeste 17 Sudoeste 0 953.4 -- 40
2021-02-17 16:00:00 20.9 8 Sudoeste 18 Sudoeste 0 953.5 -- 37
2021-02-17 15:00:00 21 10 Sudoeste 19 Sudoeste 0 954.1 -- 38
2021-02-17 14:00:00 20.2 8 Sudoeste 14 Sudoeste 0 954.9 -- 41
2021-02-17 13:00:00 19.5 6 Sudoeste 12 Sudoeste 0 955.7 -- 47
2021-02-17 12:00:00 17.8 5 Sur 12 Sur 0 956 -- 56
2021-02-17 11:00:00 15.1 5 Sur 9 Sudoeste 0 956.2 -- 64
2021-02-17 10:00:00 12 2 Este 9 Nordeste 0 956.4 -- 74
2021-02-17 09:00:00 9.3 7 Nordeste 10 Nordeste 0 956.4 -- 80
2021-02-17 08:00:00 7.8 3 Norte 9 Nordeste 0 956.3 -- 78
2021-02-17 07:00:00 7.8 3 Noroeste 5 Noroeste 0 956.2 -- 77
2021-02-17 06:00:00 8 2 Sudoeste 5 Noroeste 0 956.4 -- 79
2021-02-17 05:00:00 8.1 2 Noroeste 9 Nordeste 0 956.5 -- 78
2021-02-17 04:00:00 8.1 4 Nordeste 11 Nordeste 0 957.1 -- 84
2021-02-17 03:00:00 8.2 4 Noroeste 11 Nordeste 0 957.5 -- 84
2021-02-17 02:00:00 8.4 0 Calma 10 Nordeste 0 957.9 -- 85
2021-02-17 01:00:00 8.9 2 Este 7 Nordeste 0 958.3 -- 88
2021-02-17 00:00:00 9 2 Sudoeste 8 Nordeste 0 958.6 -- 89
2021-02-16 23:00:00 9 4 Noroeste 12 Nordeste 0 958.6 -- 87
2021-02-16 22:00:00 9.5 2 Norte 10 Nordeste 0 958.4 -- 91
2021-02-16 21:00:00 10.2 5 Nordeste 10 Nordeste 0 958.1 -- 87
2021-02-16 20:00:00 11.4 3 Nordeste 8 Nordeste 0 958.2 -- 80
2021-02-16 19:00:00 14.4 4 Oeste 9 Sudoeste 0 958.3 -- 67
2021-02-16 18:00:00 17.3 8 Sudoeste 12 Sudoeste 0 958.2 -- 54
2021-02-16 17:00:00 18.4 6 Oeste 17 Sur 0 958.4 -- 51
2021-02-16 16:00:00 18.3 8 Sudoeste 18 Sudoeste 0 958.8 -- 51
2021-02-16 15:00:00 17.9 10 Sudoeste 21 Sudoeste 0 959.2 -- 50
2021-02-16 14:00:00 17.9 11 Sudoeste 19 Sudoeste 0 959.9 -- 49
2021-02-16 13:00:00 16.4 8 Sur 17 Sudoeste 0 960.5 -- 51
2021-02-16 12:00:00 15.5 10 Sudoeste 21 Sudoeste 0 960.8 -- 49
2021-02-16 11:00:00 13.6 8 Sudoeste 15 Sudoeste 0 960.8 -- 51
2021-02-16 10:00:00 12 3 Noroeste 9 Nordeste 0 960.5 -- 56
2021-02-16 09:00:00 9.1 8 Nordeste 11 Nordeste 0 960.1 -- 62
2021-02-16 08:00:00 7.9 9 Nordeste 12 Nordeste 0 959.5 -- 66
2021-02-16 07:00:00 8.3 8 Nordeste 12 Nordeste 0 959.5 -- 62
2021-02-16 06:00:00 8.3 9 Este 13 Nordeste 0 959.4 -- 64
2021-02-16 05:00:00 8.1 9 Nordeste 13 Nordeste 0 959.5 -- 71
2021-02-16 04:00:00 9.2 8 Nordeste 13 Nordeste 0 959.8 -- 71
2021-02-16 03:00:00 9.3 9 Nordeste 13 Este 0 960.4 -- 74
2021-02-16 02:00:00 9.5 9 Nordeste 12 Este 0 960 -- 74
2021-02-16 01:00:00 8.5 6 Nordeste 10 Este 0 960.6 -- 81
2021-02-16 00:00:00 9.6 7 Este 11 Sudeste 0 960.8 -- 75
2021-02-15 23:00:00 11 6 Este 18 Este 0 960.6 -- 65
2021-02-15 22:00:00 11.7 8 Este 17 Este 0 960.4 -- 63
2021-02-15 21:00:00 12.1 7 Este 19 Este 0 960.4 -- 63
2021-02-15 20:00:00 12.8 9 Este 20 Sudeste 0 959.9 -- 67
2021-02-15 19:00:00 14.2 9 Sudeste 27 Sur 0 959.8 -- 64
2021-02-15 18:00:00 16 15 Sur 28 Sudeste 0 959.7 -- 56
2021-02-15 17:00:00 17 17 Sur 33 Sur 0 959.7 -- 52
2021-02-15 16:00:00 17.7 14 Sur 31 Sudeste 0 960 -- 50
2021-02-15 15:00:00 17.5 19 Sur 30 Sur 0 960.4 -- 48
2021-02-15 14:00:00 18 12 Sur 28 Sudeste 0 960.8 -- 51
2021-02-15 13:00:00 16.5 16 Sudeste 27 Sudeste 0 961.5 -- 50
2021-02-15 12:00:00 14.7 14 Sudeste 26 Sudeste 0 961.8 -- 56
2021-02-15 11:00:00 12.8 10 Sudeste 28 Sudeste 0 961.7 -- 65
2021-02-15 10:00:00 10.8 14 Sudeste 26 Sudeste 0 961.4 -- 68
2021-02-15 09:00:00 9.6 12 Este 22 Este 0 961 -- 68
2021-02-15 08:00:00 8.8 10 Este 21 Este 0 960.4 -- 68
2021-02-15 07:00:00 9 11 Sudeste 23 Este 0 960.3 -- 65
2021-02-15 06:00:00 8.9 10 Este 22 Este 0 960.2 -- 67
2021-02-15 05:00:00 8.8 9 Este 20 Este 0 960.2 -- 68
2021-02-15 04:00:00 8.9 8 Este 19 Este 0 960.2 -- 68
2021-02-15 03:00:00 9.5 9 Este 17 Este 0 960.4 -- 65
2021-02-15 02:00:00 8.9 8 Este 13 Este 0 960.6 -- 73
2021-02-15 01:00:00 9 8 Este 14 Este 0 960.8 -- 74
2021-02-15 00:00:00 11.2 9 Este 16 Este 0 960.9 -- 62
2021-02-14 23:00:00 12.3 9 Este 21 Este 0 960.9 -- 53
2021-02-14 22:00:00 12.7 8 Este 22 Este 0 960.7 -- 53
2021-02-14 21:00:00 13 11 Este 21 Este 0 960.4 -- 58
2021-02-14 20:00:00 12.4 10 Este 16 Este 0 960.3 -- 63
2021-02-14 19:00:00 15.8 6 Este 17 Sudeste 0 959.9 0.5 47
2021-02-14 18:00:00 18.1 12 Sudeste 21 Sudeste 0 959.5 0 37
2021-02-14 17:00:00 19.2 13 Sur 25 Sur 0 959.4 -- 37
2021-02-14 16:00:00 19.8 8 Sudeste 22 Sudeste 0 959.4 -- 39
2021-02-14 15:00:00 19.6 7 Sudeste 21 Sudeste 0 959.5 -- 39
2021-02-14 14:00:00 18.9 12 Sudeste 23 Sudeste 0 959.7 -- 40
2021-02-14 13:00:00 18.2 10 Sudeste 24 Este 0 960.3 -- 42
2021-02-14 12:00:00 17 10 Sudeste 26 Sur 0 960.3 -- 42
2021-02-14 11:00:00 15.7 13 Sudeste 23 Sudeste 0 959.9 -- 48
2021-02-14 10:00:00 14.2 8 Este 17 Sudeste 0 959.3 -- 49
2021-02-14 09:00:00 11.8 9 Este 15 Este 0 958.8 -- 50
2021-02-14 08:00:00 10.4 9 Nordeste 12 Este 0 958.4 -- 55
2021-02-14 07:00:00 11.4 6 Nordeste 13 Este 0 958 -- 49
2021-02-14 06:00:00 10.9 7 Nordeste 12 Este 0 958.1 -- 54
2021-02-14 05:00:00 10.4 7 Nordeste 10 Nordeste 0 958.2 -- 53
2021-02-14 04:00:00 9.3 0 Calma 7 Nordeste 0 958.5 -- 55
2021-02-14 03:00:00 10.8 4 Norte 12 Norte 0 958.8 -- 41
2021-02-14 02:00:00 13.6 12 Nordeste 24 Norte 0 959 -- 34
2021-02-14 01:00:00 12.3 8 Norte 29 Norte 0 959.1 -- 46
2021-02-14 00:00:00 13 14 Norte 23 Norte 0 959.1 -- 35
2021-02-13 23:00:00 11.7 4 Este 28 Norte 0 959.3 -- 54
2021-02-13 22:00:00 12.1 5 Nordeste 30 Nordeste 0 959.4 -- 55
2021-02-13 21:00:00 12.5 18 Norte 27 Nordeste 0 959.2 -- 52
2021-02-13 20:00:00 13.2 10 Norte 18 Norte 0 958.9 -- 40
2021-02-13 19:00:00 12.8 11 Norte 17 Norte 0 958.5 -- 35
2021-02-13 18:00:00 17.2 9 Norte 14 Norte 0 958.4 -- 21
2021-02-13 17:00:00 18 5 Nordeste 20 Norte 0 958.4 -- 20
2021-02-13 16:00:00 18.3 8 Norte 21 Norte 0 958.7 -- 23
2021-02-13 15:00:00 17.7 12 Nordeste 23 Noroeste 0 959.1 -- 22
2021-02-13 14:00:00 17.7 9 Noroeste 23 Norte 0 959.5 -- 21
2021-02-13 13:00:00 15.5 3 Sudoeste 11 Sur 0 959.9 -- 48
2021-02-13 08:00:00 8.2 11 Norte 20 Nordeste 0 958.5 -0.1 76
2021-02-13 07:00:00 7.2 3 Sudeste 9 Noroeste 0 958.6 -0.1 97
2021-02-13 06:00:00 7 4 Norte 18 Nordeste 0 958.7 0 95
2021-02-13 05:00:00 7.8 7 Nordeste 12 Nordeste 0 958.6 -0.1 93
2021-02-13 04:00:00 8.2 4 Nordeste 8 Nordeste 0 958.7 0.2 89
2021-02-13 03:00:00 8.3 5 Nordeste 10 Nordeste 0 958.7 0.2 91
2021-02-13 02:00:00 8.4 5 Norte 17 Norte 0 958.7 0.2 89
2021-02-13 01:00:00 9.2 8 Nordeste 15 Norte 0 958.5 0.1 87
2021-02-13 00:00:00 8.6 4 Noroeste 19 Noroeste 0 958.5 0.6 91
2021-02-12 23:00:00 9.9 5 Norte 17 Nordeste 0 958.5 0.6 83
2021-02-12 22:00:00 10.4 9 Norte 23 Norte 0 958.4 1.1 81
2021-02-12 21:00:00 10.3 10 Norte 21 Norte 0 957.9 1 85
2021-02-12 20:00:00 10.4 3 Nordeste 15 Noroeste 0 957.9 1 81
2021-02-12 19:00:00 12 8 Norte 25 Norte 0 957.3 0.4 73
2021-02-12 18:00:00 13.7 14 Norte 24 Noroeste 0 956.9 -0.1 62
2021-02-12 17:00:00 14.6 12 Norte 31 Noroeste 0 956.9 -0.1 58
2021-02-12 16:00:00 14.5 14 Noroeste 30 Norte 0 956.9 -0.6 60
2021-02-12 15:00:00 14.1 11 Norte 32 Norte 0 957 -0.2 62
2021-02-12 14:00:00 13.3 18 Norte 36 Nordeste 0 957 0.2 64
2021-02-12 13:00:00 12.4 19 Norte 42 Norte 0 957.5 1.6 72
2021-02-12 12:00:00 11.1 18 Norte 36 Noroeste 0 957.2 1.6 78
2021-02-12 11:00:00 10.3 20 Norte 37 Noroeste 0 956.8 1.9 85
2021-02-12 10:00:00 9.6 18 Norte 40 Norte 0.2 955.9 1.4 91
2021-02-12 09:00:00 8.9 5 Sudoeste 35 Noroeste 0 955.6 -- 100
2021-02-12 08:00:00 8.7 4 Norte 24 Norte 0 954.9 -- 100
2021-02-12 07:00:00 10 8 Noroeste 44 Norte 0 954.5 -- 98
2021-02-12 06:00:00 11 16 Noroeste 33 Noroeste 0.4 954.4 -- 100
2021-02-12 05:00:00 11.6 9 Oeste 20 Oeste 1.4 954.1 -- 100
2021-02-12 04:00:00 11.5 8 Oeste 16 Oeste 0.4 954.2 -- 100
2021-02-12 03:00:00 11.4 8 Oeste 17 Oeste 0.4 954.3 -- 100
2021-02-12 02:00:00 11.5 12 Oeste 23 Sudoeste 0.4 954.4 -- 100
2021-02-12 01:00:00 11.7 7 Oeste 16 Oeste 0.2 954.2 -- 100
2021-02-12 00:00:00 11.8 7 Oeste 23 Sudoeste 0.4 954.2 -- 100
2021-02-11 23:00:00 11.9 11 Sudoeste 19 Sudoeste 0.2 954 -- 100
2021-02-11 22:00:00 12 5 Sudoeste 13 Sudoeste 0.4 954 -- 100
2021-02-11 21:00:00 12.1 4 Sudoeste 8 Sudoeste 0 954 -- 100
2021-02-11 20:00:00 12.1 4 Sudoeste 11 Oeste 0.2 954 -- 100
2021-02-11 19:00:00 12.3 6 Sudoeste 13 Oeste 0.2 953.6 -- 100
2021-02-11 18:00:00 12.9 5 Sudoeste 12 Sudoeste 0 953.5 -- 100
2021-02-11 17:00:00 13.3 5 Oeste 13 Oeste 0 953.3 -- 86
2021-02-11 16:00:00 13.7 7 Sudoeste 18 Noroeste 0 953.1 -- 84
2021-02-11 15:00:00 13.9 8 Oeste 24 Sudoeste 0 953.5 -- 84
2021-02-11 14:00:00 13.3 12 Sudoeste 23 Sudoeste 0 953.9 -- 100
2021-02-11 13:00:00 12.5 13 Sudoeste 21 Sudoeste 0 954.3 -- 100
2021-02-11 12:00:00 12.1 6 Sudoeste 19 Sudoeste 0 954.6 -- 100
2021-02-11 11:00:00 11.8 8 Sudoeste 15 Sudoeste 0.2 954.5 -- 100
2021-02-11 10:00:00 11.6 7 Sudoeste 15 Sudoeste 0 954.2 -- 100
2021-02-11 09:00:00 11.4 9 Sudoeste 17 Sudoeste 0.4 953.6 -- 100
2021-02-11 08:00:00 11.2 2 Sudoeste 4 Nordeste 0.2 953.6 -- 100
2021-02-11 07:00:00 11.1 3 Nordeste 5 Nordeste 0 953.5 -- 100
2021-02-11 06:00:00 11.1 0 Calma 4 Oeste 0.2 953.4 -- 100
2021-02-11 05:00:00 10.9 2 Sudoeste 3 Sudoeste 0 953.2 -- 100
2021-02-11 04:00:00 10.9 2 Sur 5 Noroeste 0 953.5 -- 100
2021-02-11 03:00:00 10.9 3 Oeste 14 Noroeste 0 953.6 -- 100
2021-02-11 02:00:00 11.5 9 Noroeste 19 Oeste 0 953.6 -- 100
2021-02-11 01:00:00 12 9 Oeste 15 Oeste 0 953.5 -- 100
2021-02-11 00:00:00 12 8 Oeste 19 Noroeste 0.2 953.3 -- 100
2021-02-10 23:00:00 12.2 8 Oeste 19 Oeste 0 952.8 -- 100
2021-02-10 22:00:00 12.2 9 Noroeste 23 Noroeste 0.2 952.3 -- 100
2021-02-10 21:00:00 12.9 8 Oeste 18 Noroeste 0.4 952 -- 100
2021-02-10 20:00:00 13.1 7 Oeste 27 Noroeste 0.2 951.5 -- 100
2021-02-10 19:00:00 13.4 8 Oeste 24 Oeste 0.4 950.8 -- 100
2021-02-10 18:00:00 13.6 9 Oeste 24 Noroeste 0.6 950.2 -- 100
2021-02-10 17:00:00 13.8 12 Oeste 31 Oeste 0.4 949.8 -- 100
2021-02-10 16:00:00 14 12 Oeste 32 Oeste 1 949.5 -- 100
2021-02-10 15:00:00 14.1 10 Oeste 34 Oeste 0.2 949.5 -- 100
2021-02-10 14:00:00 13.9 13 Oeste 38 Oeste 0.2 949.5 -- 100
2021-02-10 13:00:00 13.5 14 Oeste 33 Noroeste 0.2 949.5 -- 100
2021-02-10 12:00:00 13.2 12 Oeste 24 Noroeste 0.6 948.9 -- 100
2021-02-10 11:00:00 12.2 10 Oeste 21 Noroeste 1.2 948.2 -- 100
2021-02-10 10:00:00 11.4 13 Oeste 28 Oeste 1.6 947.3 -- 100
2021-02-10 09:00:00 10.8 9 Oeste 32 Oeste 2.4 946.6 -- 100
2021-02-10 08:00:00 10.8 15 Oeste 31 Oeste 2.4 945.7 -- 100
2021-02-10 07:00:00 10.4 14 Oeste 27 Noroeste 2.2 945.2 -- 100
2021-02-10 06:00:00 9.8 9 Oeste 31 Oeste 3.2 944.9 -- 100
2021-02-10 05:00:00 9.5 14 Oeste 31 Oeste 2 944.4 -- 100
2021-02-10 04:00:00 9.1 10 Oeste 23 Sudoeste 0.8 944.9 -- 100
2021-02-10 03:00:00 9.2 12 Sudoeste 29 Oeste 0 945.3 -- 100
2021-02-10 02:00:00 9.3 14 Oeste 44 Oeste 0 945.5 -- 100
2021-02-10 01:00:00 9.3 13 Oeste 35 Oeste 0 945.3 -- 100
2021-02-10 00:00:00 9.3 14 Oeste 45 Noroeste 0 945 -- 100
2021-02-09 23:00:00 9.4 16 Oeste 37 Oeste 0 944.7 -- 100
2021-02-09 22:00:00 9.6 17 Oeste 34 Oeste 0 944.4 -- 100
2021-02-09 21:00:00 9.8 14 Oeste 33 Oeste 0 943.9 -- 100
2021-02-09 20:00:00 10.1 15 Oeste 36 Oeste 0 943.4 -- 100
2021-02-09 19:00:00 10.4 13 Oeste 43 Oeste 0.8 942.7 -- 100
2021-02-09 18:00:00 10.7 18 Oeste 44 Oeste 2.6 942.1 -- 100
2021-02-09 17:00:00 10.8 23 Oeste 47 Oeste 0.6 942 -- 100
2021-02-09 16:00:00 10.5 21 Oeste 53 Oeste 0 942.1 -- 100
2021-02-09 15:00:00 10.4 21 Oeste 50 Oeste 0.6 942.4 -- 100
2021-02-09 14:00:00 10.3 19 Oeste 52 Sudoeste 3.4 942.7 -- 100
2021-02-09 13:00:00 10 21 Sudoeste 58 Oeste 1.8 943.4 -- 100
2021-02-09 12:00:00 9.8 19 Sudoeste 57 Oeste 0 943.7 -- 100
2021-02-09 11:00:00 9.5 20 Sudoeste 56 Noroeste 0.4 943.8 -- 100
2021-02-09 10:00:00 9.4 20 Sudoeste 51 Sudoeste 0.4 943.7 -- 100
2021-02-09 09:00:00 9.2 23 Sudoeste 45 Sudoeste 0.2 943.6 -- 100
2021-02-09 08:00:00 9.1 19 Sudoeste 43 Sur 0.2 943.4 -- 100
2021-02-09 07:00:00 8.6 15 Sudoeste 37 Oeste 0 943.8 -- 100
2021-02-09 06:00:00 8.5 15 Oeste 32 Oeste 0.6 944.7 -- 100
2021-02-09 05:00:00 8.5 12 Oeste 36 Oeste 0 945.3 -- 100
2021-02-09 04:00:00 8.3 16 Sudoeste 41 Oeste 0 945.8 -- 100
2021-02-09 03:00:00 8.2 13 Oeste 33 Sudoeste 0 946.1 -- 100
2021-02-09 02:00:00 8.2 12 Sudoeste 32 Oeste 0 946.4 -- 100
2021-02-09 01:00:00 8.4 11 Oeste 28 Oeste 0.2 946.6 -- 100
2021-02-09 00:00:00 8.3 11 Sudoeste 22 Oeste 0 946.9 -- 100
2021-02-08 23:00:00 8.2 9 Oeste 24 Noroeste 0 947.3 -- 100
2021-02-08 22:00:00 8.2 12 Oeste 31 Oeste 0 946.4 -- 89
2021-02-08 21:00:00 8.8 14 Oeste 30 Oeste 0 946.1 -- 90
2021-02-08 20:00:00 9.3 18 Noroeste 34 Oeste 0 945.6 -- 92
2021-02-08 19:00:00 9.4 14 Noroeste 30 Noroeste 0 945.2 -- 92
2021-02-08 18:00:00 9.7 17 Noroeste 42 Norte 0.2 944.5 -- 82
2021-02-08 17:00:00 10.4 14 Oeste 38 Noroeste 0 943.8 -- 86
2021-02-08 16:00:00 10.2 17 Noroeste 39 Noroeste 0 943.5 -- 91
2021-02-08 15:00:00 9.8 17 Noroeste 42 Noroeste 0.4 943.7 -- 83
2021-02-08 14:00:00 10.2 14 Noroeste 34 Noroeste 1.8 943.8 -- 90
2021-02-08 13:00:00 9.5 13 Noroeste 46 Oeste 0.4 944.3 -- 93
2021-02-08 12:00:00 9.5 16 Oeste 39 Noroeste 0 944.3 -- 86
2021-02-08 11:00:00 9.4 13 Noroeste 33 Oeste 0 943.8 -- 88
2021-02-08 10:00:00 8.6 14 Noroeste 35 Oeste 0 943.4 -- 93
2021-02-08 09:00:00 8.2 10 Oeste 37 Noroeste 0 943 -- 92
2021-02-08 08:00:00 8 12 Noroeste 38 Noroeste 0 941.9 -- 95
2021-02-08 07:00:00 8.2 16 Noroeste 38 Noroeste 0 941.8 -- 96
2021-02-08 06:00:00 8.1 19 Norte 49 Noroeste 0 941.5 -- 97
2021-02-08 05:00:00 8.8 21 Noroeste 63 Oeste 4.4 941 -- 100
2021-02-08 04:00:00 10.5 17 Oeste 39 Oeste 5.2 940.3 -- 100
2021-02-08 03:00:00 10 14 Sudoeste 43 Oeste 4.2 941.5 -- 100
2021-02-08 02:00:00 9.3 13 Sudoeste 28 Oeste 5.4 942.8 -- 100
2021-02-08 01:00:00 8.4 8 Sudoeste 21 Oeste 4.2 943.8 -- 100
2021-02-08 00:00:00 7.9 10 Sudoeste 25 Sudoeste 1.6 944.9 -- 100
2021-02-07 23:00:00 7.6 15 Sudoeste 32 Sudoeste 0.4 945.9 -- 100
2021-02-07 22:00:00 7.7 12 Sudoeste 27 Sudoeste 0 946.4 -- 100
2021-02-07 21:00:00 7.6 10 Oeste 26 Sudoeste 0.2 946.5 -- 100
2021-02-07 20:00:00 7.5 7 Oeste 20 Oeste 0 946.7 -- 100
2021-02-07 19:00:00 7.5 12 Oeste 26 Oeste 0 946.7 -- 100
2021-02-07 18:00:00 8.1 12 Oeste 30 Noroeste 0 946.1 -- 84
2021-02-07 17:00:00 8.4 13 Oeste 39 Noroeste 0 946.2 -- 80
2021-02-07 16:00:00 7.9 13 Noroeste 35 Noroeste 0 945.9 -- 78
2021-02-07 15:00:00 8.2 11 Oeste 32 Oeste 0 945.9 -- 73
2021-02-07 14:00:00 8.1 16 Oeste 34 Noroeste 0 946.1 -- 74
2021-02-07 13:00:00 7.5 14 Noroeste 39 Noroeste 0 946.3 -- 76
2021-02-07 12:00:00 7.1 8 Oeste 39 Norte 0 945.7 -- 80
2021-02-07 11:00:00 6.3 9 Noroeste 28 Norte 0 945.8 -- 79
2021-02-07 10:00:00 5 5 Oeste 21 Nordeste 0 945 -- 90
2021-02-07 09:00:00 5 6 Noroeste 24 Norte 0 944.5 -- 100
2021-02-07 08:00:00 5.5 9 Noroeste 29 Noroeste 0 943.5 -- 100
2021-02-07 07:00:00 6 14 Norte 32 Norte 0.2 942.7 -- 100
2021-02-07 06:00:00 6.5 5 Noroeste 22 Norte 0 942.6 -- 100
2021-02-07 05:00:00 7 9 Noroeste 25 Noroeste 0 942.4 -- 100
2021-02-07 04:00:00 7.2 11 Norte 26 Noroeste 0 942.2 -- 100
2021-02-07 03:00:00 7.2 7 Norte 17 Oeste 0 941.9 -- 100
2021-02-07 02:00:00 7.3 9 Noroeste 26 Norte 0 941.6 -- 100
2021-02-07 01:00:00 7.3 10 Noroeste 26 Norte 0.2 941.5 -- 100
2021-02-07 00:00:00 7.3 8 Noroeste 18 Noroeste 0.4 941.1 -- 100
2021-02-06 23:00:00 7.2 6 Noroeste 18 Noroeste 0.4 940.8 -- 100
2021-02-06 22:00:00 7.2 5 Oeste 14 Norte 0.2 940.2 -- 100
2021-02-06 21:00:00 7.2 5 Oeste 11 Noroeste 0.2 939.7 -- 100
2021-02-06 20:00:00 7.2 8 Oeste 20 Oeste 0.4 939.1 -- 100
2021-02-06 19:00:00 7.3 8 Noroeste 24 Noroeste 0.8 938.5 -- 100
2021-02-06 18:00:00 7.5 10 Noroeste 31 Noroeste 0 938.4 -- 100
2021-02-06 17:00:00 8.3 12 Noroeste 27 Oeste 0.4 937.8 -- 100
2021-02-06 16:00:00 9.1 11 Noroeste 30 Oeste 0 937.3 -- 96
2021-02-06 15:00:00 9.4 12 Noroeste 29 Noroeste 0 937.1 -- 100
2021-02-06 14:00:00 8 18 Noroeste 32 Noroeste 2 937.4 -- 100
2021-02-06 13:00:00 8.5 13 Oeste 23 Oeste 1 937.7 -- 100
2021-02-06 12:00:00 8.4 10 Oeste 20 Oeste 0.4 937.8 -- 100
2021-02-06 11:00:00 8 8 Oeste 20 Noroeste 1.4 937.4 -- 100
2021-02-06 10:00:00 7.7 8 Oeste 20 Oeste 0.2 937.2 -- 100
2021-02-06 09:00:00 7.5 7 Oeste 15 Oeste 0.2 936.5 -- 100
2021-02-06 08:00:00 7.3 9 Oeste 27 Noroeste 0.2 936.1 -- 100
2021-02-06 07:00:00 7.3 9 Oeste 27 Sudoeste 0.4 935.8 -- 100
2021-02-06 06:00:00 7.4 11 Oeste 20 Oeste 0.8 935.6 -- 100
2021-02-06 05:00:00 7.2 10 Sudoeste 19 Sudoeste 0.6 935.5 -- 100
2021-02-06 04:00:00 7.1 8 Sudoeste 20 Oeste 0 935.6 -- 100
2021-02-06 03:00:00 7.3 9 Oeste 19 Oeste 0.4 935.5 -- 100
2021-02-06 02:00:00 7.5 7 Oeste 18 Sudoeste 0 935.7 -- 100
2021-02-06 01:00:00 7.8 11 Sudoeste 20 Oeste 0 935.6 -- 100
2021-02-06 00:00:00 8.1 8 Sudoeste 18 Oeste 0.2 935.7 -- 100
2021-02-05 23:00:00 8.4 4 Sudoeste 21 Sur 0 935 -- 100
2021-02-05 22:00:00 8.8 9 Sur 23 Sudoeste 3.4 935 -- 100
2021-02-05 21:00:00 8.8 17 Sudoeste 40 Sudoeste 2.2 935.2 -- 100
2021-02-05 20:00:00 9 14 Sur 32 Sur 4.6 935 -- 100
2021-02-05 19:00:00 9.1 15 Sudeste 31 Sudoeste 1.8 934.6 -- 100
2021-02-05 18:00:00 9 9 Sur 40 Sur 1.8 934.6 -- 100
2021-02-05 17:00:00 9.3 19 Sur 35 Sur 1.4 934.4 -- 100
2021-02-05 16:00:00 9.5 11 Sudeste 25 Sur 0.4 934.7 -- 100
2021-02-05 15:00:00 9.6 11 Sudeste 26 Sur 1.2 935 -- 100
2021-02-05 14:00:00 10.1 8 Sudeste 23 Este 0.4 936.3 -- 100
2021-02-05 13:00:00 9.5 10 Este 23 Sudoeste 2.8 936.7 -- 100
2021-02-05 12:00:00 8.9 12 Sudoeste 31 Oeste 3.8 938.7 -- 100
2021-02-05 11:00:00 8.7 17 Oeste 41 Oeste 3.4 938.1 -- 100
2021-02-05 10:00:00 9.3 14 Oeste 25 Noroeste 0.8 938.1 -- 100
2021-02-05 09:00:00 9.5 13 Norte 30 Oeste 2.2 937.3 -- 100
2021-02-05 08:00:00 10.2 17 Norte 33 Nordeste 0 937.6 -- 100
2021-02-05 07:00:00 10.2 18 Norte 35 Norte 0.2 937.1 -- 100
2021-02-05 06:00:00 10.4 13 Noroeste 27 Noroeste 0.8 937.5 -- 100
2021-02-05 05:00:00 9.6 3 Sudoeste 12 Este 0 937.8 -- 100
2021-02-05 04:00:00 9.8 5 Este 20 Noroeste 0.6 937.9 -- 100
2021-02-05 03:00:00 10.2 5 Norte 14 Este 0.4 938.7 -- 100
2021-02-05 02:00:00 10 10 Este 16 Este 0.6 938.8 -- 100
2021-02-05 01:00:00 9.9 8 Nordeste 12 Este 0.2 939.6 -- 100
2021-02-05 00:00:00 10 5 Este 15 Este 0 939.8 -- 100
2021-02-04 23:00:00 9.9 6 Este 12 Nordeste 0 940.5 -- 100
2021-02-04 22:00:00 10.5 0 Calma 10 Sudeste 0 941 -- 100
2021-02-04 21:00:00 10.4 3 Oeste 15 Este 0 940.6 -- 100
2021-02-04 20:00:00 10.3 5 Este 12 Este 0 940.6 -- 100
2021-02-04 19:00:00 10 6 Nordeste 9 Nordeste 0.2 940.9 -- 100
2021-02-04 18:00:00 10.5 4 Sudeste 13 Sudeste 0.4 941.3 -- 100
2021-02-04 17:00:00 10.6 6 Sudeste 18 Sur 0.2 941.2 -- 100
2021-02-04 16:00:00 10.5 14 Sudoeste 31 Sudoeste 1.4 941.6 -- 100
2021-02-04 15:00:00 10.4 10 Sudoeste 33 Sudoeste 0.4 941.6 -- 100
2021-02-04 14:00:00 10.8 12 Sudoeste 31 Sudoeste 1.4 942.1 -- 100
2021-02-04 13:00:00 10.6 8 Sur 31 Sudoeste 0.8 942.8 -- 100
2021-02-04 12:00:00 10.2 13 Sudoeste 35 Sudeste 0.6 943.3 -- 100
2021-02-04 11:00:00 10.1 16 Sur 39 Sur 1.2 943.2 -- 100
2021-02-04 10:00:00 10.3 9 Sur 27 Sur 1 942.8 -- 100
2021-02-04 09:00:00 10.1 15 Sur 26 Sur 1.2 942.8 -- 100
2021-02-04 08:00:00 10 10 Sur 28 Sur 0 943.2 -- 100
2021-02-04 07:00:00 9.9 15 Sur 26 Sur 0.2 943.5 -- 100
2021-02-04 06:00:00 10 13 Sur 24 Sur 0.2 943.8 -- 100
2021-02-04 05:00:00 10.2 12 Sur 25 Sur 0.2 944.4 -- 100
2021-02-04 04:00:00 10.4 14 Sur 26 Sur 1 945 -- 100
2021-02-04 03:00:00 10.8 8 Sudeste 14 Sudeste 2.6 945.7 -- 100
2021-02-04 02:00:00 10.9 9 Sudoeste 18 Sudoeste 1.4 946.3 -- 100
2021-02-04 01:00:00 10.9 6 Sudoeste 13 Sudoeste 2.4 946.9 -- 100
2021-02-04 00:00:00 10.8 8 Sudoeste 20 Sudoeste 2 947.3 -- 100
2021-02-03 23:00:00 10.7 10 Sudoeste 19 Sur 1.8 947.5 -- 100
2021-02-03 22:00:00 10.9 8 Sudoeste 15 Sudoeste 1.4 947.5 -- 100
2021-02-03 21:00:00 10.9 8 Sudoeste 21 Sudoeste 0.2 948 -- 100
2021-02-03 20:00:00 11 9 Sudoeste 20 Sur 0.4 947.9 -- 100
2021-02-03 19:00:00 11.4 9 Sudoeste 21 Sur 0 948 -- 100
2021-02-03 18:00:00 11.6 15 Sudoeste 26 Sudoeste 0 947.9 -- 97
2021-02-03 17:00:00 11.9 12 Sudoeste 24 Sudoeste 0 948 -- 94
2021-02-03 16:00:00 11.7 9 Sur 23 Sudoeste 0 948.7 -- 95
2021-02-03 15:00:00 11.5 10 Sudoeste 21 Sudoeste 0 948.9 -- 92
2021-02-03 14:00:00 11.6 9 Sudoeste 18 Sudoeste 0 949.4 -- 88
2021-02-03 13:00:00 11.5 8 Sudoeste 15 Sudoeste 0 950.3 -- 88
2021-02-03 12:00:00 11 5 Sur 16 Sudoeste 0 951 -- 93
2021-02-03 11:00:00 10.9 4 Sudoeste 17 Sudoeste 0 951 -- 97
2021-02-03 10:00:00 10.3 4 Sudoeste 13 Sudoeste 0 950.7 -- 97
2021-02-03 09:00:00 9.9 6 Sudoeste 13 Sudoeste 0 950.4 -- 99
2021-02-03 08:00:00 9.8 6 Sudoeste 11 Oeste 0 950.2 -- 92
2021-02-03 07:00:00 9.8 5 Oeste 13 Oeste 0 950 -- 91
2021-02-03 06:00:00 9.7 6 Oeste 10 Oeste 0 950 -- 94
2021-02-03 05:00:00 9.7 2 Sudoeste 8 Oeste 0 950.2 -- 99
2021-02-03 04:00:00 9.8 4 Sudoeste 12 Oeste 0 950.6 -- 97
2021-02-03 03:00:00 9.9 4 Oeste 15 Noroeste 0 951 -- 98
2021-02-03 02:00:00 10.1 6 Oeste 15 Oeste 0 951.3 -- 100
2021-02-03 01:00:00 10.4 5 Oeste 13 Noroeste 0 951.8 -- 100
2021-02-03 00:00:00 10.6 7 Oeste 17 Sudoeste 0 951.7 -- 100
2021-02-02 23:00:00 10.9 8 Sudoeste 16 Sudoeste 0 951.7 -- 100
2021-02-02 22:00:00 11 9 Sudoeste 19 Sudoeste 0 951.6 -- 100
2021-02-02 21:00:00 11.3 14 Sudoeste 23 Sudoeste 0 951.8 -- 100
2021-02-02 20:00:00 11.9 10 Sudoeste 20 Sudoeste 0 951.6 -- 100
2021-02-02 19:00:00 12.2 8 Sudoeste 18 Sudoeste 0 951.4 -- 100
2021-02-02 18:00:00 12.6 9 Sudoeste 19 Sudoeste 0 951.3 -- 92
2021-02-02 17:00:00 12.8 12 Sudoeste 23 Sudoeste 0 951.3 -- 92
2021-02-02 16:00:00 13.7 14 Sudoeste 22 Sur 0 951.6 -- 81
2021-02-02 15:00:00 13.4 8 Sudoeste 17 Sudoeste 0 951.8 -- 87
2021-02-02 14:00:00 13 7 Sudoeste 15 Sudoeste 0 952.5 -- 91
2021-02-02 13:00:00 12.2 10 Sudoeste 21 Sudoeste 0 953.7 -- 100
2021-02-02 12:00:00 11.7 6 Oeste 13 Oeste 0.2 954.4 -- 100
2021-02-02 11:00:00 11.7 4 Sudoeste 12 Sudoeste 0.2 954.3 -- 100
2021-02-02 10:00:00 11 6 Sudoeste 10 Sudoeste 0 953.9 -- 100
2021-02-02 09:00:00 10.6 3 Sudoeste 7 Sudoeste 0.2 953.7 -- 100
2021-02-02 08:00:00 10.6 4 Sudoeste 5 Oeste 0 953.6 -- 100
2021-02-02 07:00:00 10.6 0 Calma 6 Sudoeste 0 953.7 -- 100
2021-02-02 06:00:00 10.6 4 Oeste 13 Oeste 0 953.7 -- 100
2021-02-02 05:00:00 10.7 3 Oeste 8 Oeste 0 953.8 -- 100
2021-02-02 04:00:00 10.6 4 Oeste 13 Oeste 0 954.2 -- 100
2021-02-02 03:00:00 10.9 6 Oeste 17 Noroeste 0 954.5 -- 100
2021-02-02 02:00:00 11.1 8 Noroeste 18 Norte 0 954.7 -- 96
2021-02-02 01:00:00 11.1 9 Noroeste 22 Noroeste 0 954.9 -- 95
2021-02-02 00:00:00 10.7 6 Noroeste 15 Noroeste 0 954.7 -- 97
2021-02-01 23:00:00 10.5 3 Noroeste 10 Noroeste 0 955 -- 96
2021-02-01 22:00:00 10.1 2 Noroeste 9 Noroeste 0 955 -- 96
2021-02-01 21:00:00 10.9 5 Noroeste 10 Noroeste 0 954.6 -- 90
2021-02-01 20:00:00 11.7 5 Oeste 9 Oeste 0 954.8 0.4 88
2021-02-01 19:00:00 12 6 Noroeste 19 Noroeste 0 954.5 -- 83
2021-02-01 18:00:00 12.3 10 Noroeste 22 Noroeste 0 954.3 -- 78
2021-02-01 17:00:00 12.9 15 Norte 29 Norte 0 954.4 -- 78
2021-02-01 16:00:00 15.2 8 Noroeste 24 Noroeste 0 954.2 -- 71
2021-02-01 15:00:00 14.9 13 Oeste 24 Noroeste 0 954.4 -- 71
2021-02-01 14:00:00 13.6 12 Noroeste 28 Noroeste 0 954.7 -- 76
2021-02-01 13:00:00 12.1 10 Norte 31 Norte 0 955.2 -- 82
2021-02-01 12:00:00 11.7 11 Norte 26 Noroeste 0 955.6 -- 87
2021-02-01 11:00:00 11.1 5 Noroeste 22 Norte 0 954.8 -- 92
2021-02-01 10:00:00 10.6 6 Noroeste 20 Norte 0 954.8 -- 100
2021-02-01 09:00:00 10.5 5 Sur 13 Oeste 0.2 954.1 -- 100
2021-02-01 08:00:00 10.7 5 Oeste 18 Noroeste 0 953.5 -- 100
2021-02-01 07:00:00 10.8 10 Noroeste 24 Noroeste 0 953 -- 100
2021-02-01 06:00:00 11 10 Oeste 30 Noroeste 0 953.1 -- 100
2021-02-01 05:00:00 11.1 9 Noroeste 24 Noroeste 0 953 -- 100
2021-02-01 04:00:00 11.6 13 Noroeste 33 Oeste 0 953 -- 100
2021-02-01 03:00:00 12 12 Noroeste 38 Noroeste 0 953.1 -- 100
2021-02-01 02:00:00 12.4 13 Noroeste 39 Noroeste 0.2 953.5 -- 100
2021-02-01 01:00:00 12.7 15 Noroeste 27 Noroeste 1 953.7 -- 100
2021-02-01 00:00:00 12.6 13 Oeste 28 Noroeste 0.6 953.2 -- 100
2021-01-31 23:00:00 12.4 13 Oeste 31 Oeste 0.4 953.3 -- 100
2021-01-31 22:00:00 12.2 13 Oeste 28 Oeste 0.4 953.4 -- 100
2021-01-31 21:00:00 11.8 12 Oeste 24 Oeste 0.2 953.3 -- 100
2021-01-31 20:00:00 11.7 12 Oeste 32 Oeste 0.2 953.3 -- 100
2021-01-31 19:00:00 11.7 12 Oeste 28 Oeste 0.6 953.2 -- 100
2021-01-31 18:00:00 11.6 14 Oeste 34 Oeste 0.4 953.2 -- 100
2021-01-31 17:00:00 11.8 13 Oeste 29 Oeste 0.8 953.5 -- 100
2021-01-31 16:00:00 12 12 Oeste 28 Oeste 0.4 953.7 -- 100
2021-01-31 15:00:00 11.6 11 Oeste 24 Oeste 0.2 954.1 -- 100
2021-01-31 14:00:00 11.4 12 Oeste 27 Oeste 0 954.7 -- 100
2021-01-31 13:00:00 11.1 16 Oeste 34 Oeste 0 955.1 -- 97
2021-01-31 12:00:00 11.3 15 Oeste 36 Oeste 0 955.2 -- 85
2021-01-31 11:00:00 11.1 11 Noroeste 32 Noroeste 0 955.1 -- 86
2021-01-31 10:00:00 10 12 Noroeste 29 Oeste 0 954.9 -- 94
2021-01-31 09:00:00 9.4 14 Noroeste 35 Noroeste 0 954.4 -- 98
2021-01-31 08:00:00 9.3 13 Noroeste 27 Oeste 0 954 -- 100
2021-01-31 07:00:00 9.1 13 Noroeste 28 Noroeste 0 953.7 -- 100
2021-01-31 06:00:00 8.9 12 Noroeste 35 Noroeste 0 953.2 -- 100
2021-01-31 05:00:00 8.9 9 Noroeste 41 Norte 0 953 -- 96
2021-01-31 04:00:00 8.7 16 Noroeste 37 Noroeste 0 952.9 -- 89
2021-01-31 03:00:00 8.7 14 Noroeste 37 Noroeste 0 953.5 -- 89
2021-01-31 02:00:00 8.5 13 Noroeste 31 Noroeste 0 953.6 -- 90
2021-01-31 01:00:00 8.6 17 Noroeste 40 Noroeste 0 954 -- 90
2021-01-31 00:00:00 8.6 19 Noroeste 35 Noroeste 0 953.5 -- 88